Flight Track Log - Related Links

Times and Time Zones

All times are in EDT time to prevent confusion due to time zone crossing. See the N524NK flight status page for this flight to view local times or setup timezone preferences in your user account.

Time Position Orientation Groundspeed Altitude Reporting Facility
EDT Latitude Longitude Course Direction KTS MPH feet Rate Location/Type
Fri 08:44:24 PM 39.8841 -104.6960 360° North 177 204 5,500  Level FlightAware ADS-B
Fri 08:44:39 PM 39.8967 -104.6960 360° North 175 201 6,200 2,700 Climbing FlightAware ADS-B
Fri 08:44:44 PM 39.9008 -104.6970 349° North 175 201 6,400 2,250 Climbing FlightAware ADS-B
Fri 08:44:47 PM 39.9034 -104.6980 344° North 177 204 6,500 2,571 Climbing FlightAware ADS-B
Fri 08:44:51 PM 39.9064 -104.6990 346° North 176 203 6,700 2,000 Climbing FlightAware ADS-B
Fri 08:44:56 PM 39.9098 -104.7010 336° Northwest 182 209 6,800 1,333 Climbing FlightAware ADS-B
Fri 08:45:00 PM 39.9123 -104.7040 317° Northwest 187 215 6,900 1,333 Climbing FlightAware ADS-B
Fri 08:45:05 PM 39.9153 -104.7090 308° West 192 221 7,000 1,500 Climbing FlightAware ADS-B
Fri 08:45:08 PM 39.9169 -104.7120 305° West 198 228 7,100 1,500 Climbing FlightAware ADS-B
Fri 08:45:13 PM 39.9185 -104.7170 293° West 202 232 7,200 1,333 Climbing FlightAware ADS-B
Fri 08:45:17 PM 39.9191 -104.7220 279° West 211 243 7,300 1,500 Climbing FlightAware ADS-B
Fri 08:45:21 PM 39.9192 -104.7280 271° West 218 251 7,400 857 Climbing FlightAware ADS-B
Fri 08:45:24 PM 39.9188 -104.7320 263° West 224 258 7,400 857 Level FlightAware ADS-B
Fri 08:45:28 PM 39.9179 -104.7360 254° West 229 264 7,500 1,091 Climbing FlightAware ADS-B
Fri 08:45:35 PM 39.9157 -104.7460 254° West 239 275 7,600 1,200 Climbing FlightAware ADS-B
Fri 08:45:43 PM 39.9126 -104.7570 250° West 254 292 7,800 1,286 Climbing FlightAware ADS-B
Fri 08:45:49 PM 39.9098 -104.7660 248° West 264 304 7,900 1,385 Climbing FlightAware ADS-B
Fri 08:45:56 PM 39.9063 -104.7770 247° West 277 319 8,100 2,000 Climbing FlightAware ADS-B
Fri 08:46:01 PM 39.9035 -104.7850 245° Southwest 282 325 8,300 2,571 Climbing FlightAware ADS-B
Fri 08:46:17 PM 39.8945 -104.8100 245° Southwest 293 337 9,000 2,769 Climbing FlightAware ADS-B
Fri 08:46:53 PM 39.8750 -104.8620 244° Southwest 303 349 10,700 2,780 Climbing FlightAware ADS-B
Fri 08:46:58 PM 39.8703 -104.8760 246° West 313 360 10,900 1,667 Climbing FlightAware ADS-B
Fri 08:47:11 PM 39.8628 -104.8990 247° West 329 379 11,200 2,471 Climbing FlightAware ADS-B
Fri 08:47:49 PM 39.8464 -104.9740 254° West 341 392 13,000 3,000 Climbing FlightAware ADS-B
Fri 08:48:27 PM 39.8306 -105.0490 255° West 343 395 15,000 2,743 Climbing FlightAware ADS-B
Fri 08:48:59 PM 39.8167 -105.1130 254° West 354 407 16,200 2,348 Climbing FlightAware ADS-B
Fri 08:49:36 PM 39.7999 -105.1900 254° West 364 419 17,700 2,382 Climbing FlightAware ADS-B
Fri 08:50:07 PM 39.7855 -105.2570 254° West 370 426 18,900 2,190 Climbing FlightAware ADS-B
Fri 08:50:39 PM 39.7707 -105.3270 255° West 382 440 20,000 2,419 Climbing FlightAware ADS-B
Fri 08:51:09 PM 39.7568 -105.3930 255° West 374 430 21,400 2,557 Climbing FlightAware ADS-B
Fri 08:51:40 PM 39.7427 -105.4590 254° West 374 430 22,600 1,770 Climbing FlightAware ADS-B
Fri 08:52:10 PM 39.7283 -105.5260 254° West 391 450 23,200 1,400 Climbing FlightAware ADS-B
Fri 08:52:40 PM 39.7135 -105.5950 254° West 399 459 24,000 1,607 Climbing FlightAware ADS-B
Fri 08:53:06 PM 39.7013 -105.6560 255° West 405 466 24,700 1,895 Climbing FlightAware ADS-B
Fri 08:53:37 PM 39.6926 -105.7280 261° West 403 464 25,800 2,066 Climbing FlightAware ADS-B
Fri 08:54:07 PM 39.6849 -105.8000 262° West 401 461 26,800 1,600 Climbing FlightAware ADS-B
Fri 08:54:37 PM 39.6768 -105.8720 262° West 410 472 27,400 1,171 Climbing FlightAware ADS-B
Fri 08:54:48 PM 39.6738 -105.8980 261° West 412 474 27,600 1,304 Climbing FlightAware ADS-B
Fri 08:55:00 PM 39.6685 -105.9270 257° West 416 479 27,900 1,714 Climbing FlightAware ADS-B
Fri 08:55:30 PM 39.6492 -105.9980 251° West 416 479 28,800 1,700 Climbing FlightAware ADS-B
Fri 08:56:00 PM 39.6299 -106.0690 251° West 415 478 29,600 1,500 Climbing FlightAware ADS-B
Fri 08:56:30 PM 39.6102 -106.1400 250° West 418 481 30,300 1,279 Climbing FlightAware ADS-B
Fri 08:57:01 PM 39.5904 -106.2110 250° West 420 483 30,900 1,377 Climbing FlightAware ADS-B
Fri 08:57:31 PM 39.5704 -106.2830 250° West 417 480 31,700 1,800 Climbing FlightAware ADS-B
Fri 08:58:01 PM 39.5507 -106.3520 250° West 409 471 32,700 1,869 Climbing FlightAware ADS-B
Fri 08:58:32 PM 39.5309 -106.4230 250° West 405 466 33,600 1,548 Climbing FlightAware ADS-B
Fri 08:59:03 PM 39.5114 -106.4930 250° West 402 463 34,300 1,377 Climbing FlightAware ADS-B
Fri 08:59:33 PM 39.4922 -106.5610 250° West 400 460 35,000 1,200 Climbing FlightAware ADS-B
Fri 09:00:03 PM 39.4730 -106.6290 250° West 399 459 35,500 1,065 Climbing FlightAware ADS-B
Fri 09:00:35 PM 39.4528 -106.7000 250° West 401 461 36,100 1,238 Climbing FlightAware ADS-B
Fri 09:01:06 PM 39.4336 -106.7680 250° West 395 455 36,800 1,180 Climbing FlightAware ADS-B
Fri 09:01:36 PM 39.4146 -106.8350 250° West 393 452 37,300 885 Climbing FlightAware ADS-B
Fri 09:02:07 PM 39.3957 -106.9010 250° West 392 451 37,700 689 Climbing FlightAware ADS-B
Fri 09:02:37 PM 39.3761 -106.9700 250° West 391 450 38,000 295 Climbing FlightAware ADS-B
Fri 09:03:08 PM 39.3574 -107.0350 250° West 389 448 38,000  Level FlightAware ADS-B
Fri 09:03:38 PM 39.3383 -107.1020 250° West 387 445 38,000  Level FlightAware ADS-B
Fri 09:04:09 PM 39.3194 -107.1670 249° West 389 448 38,000  Level FlightAware ADS-B
Fri 09:04:39 PM 39.3003 -107.2330 250° West 390 449 38,000  Level FlightAware ADS-B
Fri 09:05:09 PM 39.2813 -107.2980 249° West 390 449 38,000  Level FlightAware ADS-B
Fri 09:05:44 PM 39.2591 -107.3750 250° West 390 449 38,000  Level FlightAware ADS-B
Fri 09:06:15 PM 39.2399 -107.4410 249° West 391 450 38,000  Level FlightAware ADS-B
Fri 09:06:46 PM 39.2198 -107.5100 249° West 391 450 38,000  Level FlightAware ADS-B
Fri 09:07:17 PM 39.2002 -107.5770 249° West 391 450 38,000  Level FlightAware ADS-B
Fri 09:07:48 PM 39.1805 -107.6440 249° West 392 451 38,000  Level FlightAware ADS-B
Fri 09:08:23 PM 39.1610 -107.7080 249° West 392 451 38,000  Level FlightAware ADS-B
Fri 09:09:03 PM 39.1360 -107.7960 250° West 391 450 38,000  Level FlightAware ADS-B
Fri 09:09:48 PM 39.1080 -107.8900 249° West 391 450 38,000  Level FlightAware ADS-B
Fri 09:10:28 PM 39.0790 -107.9860 249° West 390 449 38,000  Level FlightAware ADS-B
Fri 09:11:08 PM 39.0540 -108.0700 249° West 389 448 38,000  Level FlightAware ADS-B
Fri 09:12:03 PM 39.0190 -108.1890 249° West 389 448 38,000  Level FlightAware ADS-B
Fri 09:12:48 PM 38.9910 -108.2800 248° West 389 448 38,000  Level FlightAware ADS-B
Fri 09:13:28 PM 38.9640 -108.3710 249° West 389 448 38,000  Level FlightAware ADS-B
Fri 09:14:13 PM 38.9350 -108.4670 249° West 389 448 38,000  Level FlightAware ADS-B
Fri 09:14:53 PM 38.9090 -108.5530 249° West 387 445 38,000  Level FlightAware ADS-B
Fri 09:15:38 PM 38.8800 -108.6480 249° West 387 445 38,000  Level FlightAware ADS-B
Fri 09:16:18 PM 38.8530 -108.7360 249° West 387 445 38,000  Level FlightAware ADS-B
Fri 09:16:58 PM 38.8290 -108.8140 248° West 388 447 38,000  Level FlightAware ADS-B
Fri 09:17:38 PM 38.8010 -108.9060 249° West 388 447 38,000  Level FlightAware ADS-B
Fri 09:18:23 PM 38.7700 -109.0060 248° West 387 445 38,000  Level FlightAware ADS-B
Fri 09:19:08 PM 38.7410 -109.0990 248° West 388 447 38,000  Level FlightAware ADS-B
Fri 09:19:48 PM 38.7140 -109.1860 248° West 388 447 38,000  Level FlightAware ADS-B
Fri 09:20:28 PM 38.6930 -109.2550 249° West 388 447 38,000  Level FlightAware ADS-B
Fri 09:21:08 PM 38.6630 -109.3510 248° West 388 447 38,000  Level FlightAware ADS-B
Fri 09:21:43 PM 38.6390 -109.4270 248° West 388 447 38,000  Level FlightAware ADS-B
Fri 09:22:38 PM 38.6030 -109.5400 248° West 387 445 38,000  Level FlightAware ADS-B
Fri 09:23:18 PM 38.5770 -109.6240 248° West 385 443 38,000  Level FlightAware ADS-B
Fri 09:24:13 PM 38.5410 -109.7390 248° West 384 442 38,000  Level FlightAware ADS-B
Fri 09:24:53 PM 38.5180 -109.8100 248° West 384 442 38,000  Level FlightAware ADS-B
Fri 09:25:33 PM 38.4950 -109.8820 248° West 384 442 38,000  Level FlightAware ADS-B
Fri 09:26:13 PM 38.4730 -109.9530 248° West 384 442 38,000  Level FlightAware ADS-B
Fri 09:27:03 PM 38.4440 -110.0430 248° West 384 442 38,000  Level FlightAware ADS-B
Fri 09:27:43 PM 38.4220 -110.1140 248° West 384 442 38,000  Level FlightAware ADS-B
Fri 09:28:23 PM 38.3990 -110.1860 248° West 384 442 38,000  Level FlightAware ADS-B
Fri 09:29:03 PM 38.3770 -110.2570 248° West 384 442 38,000  Level FlightAware ADS-B
Fri 09:29:43 PM 38.3540 -110.3290 248° West 384 442 38,000  Level FlightAware ADS-B
Fri 09:30:33 PM 38.3260 -110.4180 248° West 384 442 38,000  Level FlightAware ADS-B
Fri 09:31:13 PM 38.3030 -110.4890 248° West 384 442 38,000  Level FlightAware ADS-B
Fri 09:31:53 PM 38.2800 -110.5610 248° West 384 442 38,000  Level FlightAware ADS-B
Fri 09:32:33 PM 38.2580 -110.6320 248° West 384 442 38,000  Level FlightAware ADS-B
Fri 09:33:13 PM 38.2350 -110.7030 248° West 384 442 38,000 -2,370 Level FlightAware ADS-B
Fri 09:33:54 PM 38.0417 -110.9056 248° West 390 449 34,800 -2,447 Descending Los Angeles Center
Fri 09:34:56 PM 37.9883 -111.0256 241° Southwest 390 449 33,800 -968 Descending Los Angeles Center
Fri 09:35:58 PM 37.9344 -111.1483 241° Southwest 394 453 32,800 -844 Descending Los Angeles Center
Fri 09:37:04 PM 37.8642 -111.2981 239° Southwest 405 466 32,000 -375 Descending Salt Lake Center
Fri 09:38:06 PM 37.8100 -111.4211 241° Southwest 403 464 32,000  Level Salt Lake Center
Fri 09:39:07 PM 37.7567 -111.5433 241° Southwest 398 458 32,000  Level Salt Lake Center
Fri 09:40:09 PM 37.7006 -111.6647 240° Southwest 400 460 32,000  Level Salt Lake Center
Fri 09:41:10 PM 37.6464 -111.7869 241° Southwest 400 460 32,000  Level Salt Lake Center
Fri 09:42:12 PM 37.5911 -111.9086 240° Southwest 399 459 32,000  Level Salt Lake Center
Fri 09:43:13 PM 37.5350 -112.0308 240° Southwest 402 463 32,000  Level Salt Lake Center
Fri 09:44:15 PM 37.4811 -112.1536 241° Southwest 400 460 32,000  Level Salt Lake Center
Fri 09:45:16 PM 37.4136 -112.2992 240° Southwest 400 460 32,000  Level Salt Lake Center
Fri 09:46:27 PM 37.3583 -112.4194 240° Southwest 395 455 32,000  Level Los Angeles Center
Fri 09:47:29 PM 37.2903 -112.5664 240° Southwest 400 460 32,000  Level Los Angeles Center
Fri 09:53:08 PM 36.9740 -113.2510 240° Southwest 405 466 32,000 -63 Level FlightAware ADS-B
Fri 09:53:53 PM 36.9320 -113.3440 241° Southwest 397 457 31,600 -847 Descending FlightAware ADS-B
Fri 09:54:33 PM 36.8940 -113.4250 240° Southwest 396 456 30,800 -1,624 Descending FlightAware ADS-B
Fri 09:55:18 PM 36.8540 -113.5100 240° Southwest 390 449 29,300 -2,047 Descending FlightAware ADS-B
Fri 09:55:58 PM 36.8180 -113.5880 240° Southwest 384 442 27,900 -2,175 Descending FlightAware ADS-B
Fri 09:56:38 PM 36.7820 -113.6650 240° Southwest 378 435 26,400 -2,118 Descending FlightAware ADS-B
Fri 09:57:23 PM 36.7420 -113.7500 240° Southwest 374 430 24,900 -2,118 Descending FlightAware ADS-B
Fri 09:58:03 PM 36.7060 -113.8250 239° Southwest 368 423 23,400 -2,118 Descending FlightAware ADS-B
Fri 09:58:48 PM 36.6690 -113.9050 240° Southwest 363 418 21,900 -1,976 Descending FlightAware ADS-B
Fri 09:59:28 PM 36.6350 -113.9760 239° Southwest 357 411 20,600 -1,906 Descending FlightAware ADS-B
Fri 10:00:13 PM 36.5980 -114.0550 240° Southwest 350 403 19,200 -1,835 Descending FlightAware ADS-B
Fri 10:00:53 PM 36.5650 -114.1250 240° Southwest 339 390 18,000 -1,800 Descending FlightAware ADS-B
Fri 10:01:33 PM 36.5330 -114.1910 239° Southwest 336 387 16,800 -1,765 Descending FlightAware ADS-B
Fri 10:02:18 PM 36.4970 -114.2630 238° Southwest 335 386 15,500 -1,624 Descending FlightAware ADS-B
Fri 10:02:58 PM 36.4500 -114.3150 222° Southwest 337 388 14,500 -1,800 Descending FlightAware ADS-B
Fri 10:03:38 PM 36.4030 -114.3670 222° Southwest 337 388 13,100 -1,976 Descending FlightAware ADS-B
Fri 10:04:23 PM 36.3510 -114.4240 221° Southwest 332 382 11,700 -1,412 Descending FlightAware ADS-B
Fri 10:05:03 PM 36.3120 -114.4800 229° Southwest 305 351 11,100 -1,200 Descending FlightAware ADS-B
Fri 10:05:48 PM 36.2750 -114.5410 233° Southwest 299 344 10,000 -1,371 Descending FlightAware ADS-B
Fri 10:06:13 PM 36.2550 -114.5730 232° Southwest 293 337 9,500 -1,418 Descending FlightAware ADS-B
Fri 10:06:43 PM 36.2300 -114.6140 233° Southwest 290 334 8,700 -1,418 Descending FlightAware ADS-B
Fri 10:07:08 PM 36.2090 -114.6480 233° Southwest 281 323 8,200 -655 Descending FlightAware ADS-B
Fri 10:07:38 PM 36.1860 -114.6860 233° Southwest 273 314 8,100 -436 Descending FlightAware ADS-B
Fri 10:08:03 PM 36.1680 -114.7150 232° Southwest 276 318 7,800 -1,200 Descending FlightAware ADS-B
Fri 10:08:33 PM 36.1440 -114.7530 232° Southwest 278 320 7,000 -1,200 Descending FlightAware ADS-B
Fri 10:09:03 PM 36.1210 -114.7900 232° Southwest 268 308 6,600 -436 Descending FlightAware ADS-B
Fri 10:09:28 PM 36.1030 -114.8190 232° Southwest 245 282 6,600  Level FlightAware ADS-B
Fri 10:09:58 PM 36.0840 -114.8510 234° Southwest 224 258 6,600  Level FlightAware ADS-B
Fri 10:10:23 PM 36.0720 -114.8780 241° Southwest 205 236 6,600 -545 Level FlightAware ADS-B
Fri 10:10:53 PM 36.0730 -114.9130 272° West 190 219 6,100 -933 Descending FlightAware ADS-B
Fri 10:11:08 PM 36.0740 -114.9280 275° West 185 213 5,900 -1,350 Descending FlightAware ADS-B
Fri 10:11:33 PM 36.0740 -114.9540 270° West 186 214 5,200 -1,543 Descending FlightAware ADS-B
Fri 10:12:18 PM 36.0740 -115.0030 270° West 189 217 4,100 -1,371 Descending FlightAware ADS-B
Fri 10:12:43 PM 36.0740 -115.0300 270° West 175 201 3,600 -982 Descending FlightAware ADS-B
Fri 10:13:13 PM 36.0760 -115.0580 275° West 154 177 3,200 -800 Descending FlightAware ADS-B
Fri 10:13:28 PM 36.0770 -115.0680 277° West 149 171 3,000 -750 Descending FlightAware ADS-B
Fri 10:13:53 PM 36.0760 -115.0920 267° West 145 167 2,700 -545 Descending FlightAware ADS-B
Fri 10:14:23 PM 36.0760 -115.1170 270° West 152 175 2,500 1,000 Descending FlightAware ADS-B
Fri 10:14:53 PM 36.0770 -115.1450 273° West 170 196 3,700 2,133 Climbing FlightAware ADS-B
Fri 10:15:08 PM 36.0770 -115.1580 270° West 180 207 4,100 1,650 Climbing FlightAware ADS-B
Fri 10:15:33 PM 36.0780 -115.1880 272° West 210 242 4,800 2,308 Climbing FlightAware ADS-B
Fri 10:16:13 PM 36.0670 -115.2320 253° West 216 249 6,600 1,971 Climbing FlightAware ADS-B
Fri 10:16:43 PM 36.0420 -115.2520 213° Southwest 220 253 7,100 667 Climbing FlightAware ADS-B
Fri 10:16:58 PM 36.0280 -115.2580 199° South 227 261 7,100  Level FlightAware ADS-B
Fri 10:17:23 PM 36.0040 -115.2420 152° Southeast 240 276 7,100  Level FlightAware ADS-B
Fri 10:17:38 PM 35.9980 -115.2240 112° Southeast 246 283 7,100  Level FlightAware ADS-B
Fri 10:17:53 PM 35.9980 -115.2020 90° East 252 290 7,100  Level FlightAware ADS-B
Fri 10:18:23 PM 35.9970 -115.1590 92° East 247 284 7,100  Level FlightAware ADS-B
Fri 10:18:48 PM 35.9970 -115.1260 90° East 222 255 7,100 -327 Level FlightAware ADS-B
Fri 10:19:18 PM 35.9990 -115.0900 86° East 206 237 6,800 -764 Descending FlightAware ADS-B
Fri 10:19:43 PM 36.0010 -115.0620 85° East 203 234 6,400 -900 Descending FlightAware ADS-B
Fri 10:19:58 PM 36.0040 -115.0440 78° East 201 231 6,200 -400 Descending FlightAware ADS-B
Fri 10:20:28 PM 36.0110 -115.0100 76° East 202 232 6,100 -109 Descending FlightAware ADS-B
Fri 10:20:53 PM 36.0190 -114.9830 70° East 206 237 6,100  Level FlightAware ADS-B
Fri 10:21:08 PM 36.0310 -114.9730 34° Northeast 203 234 6,100 -200 Level FlightAware ADS-B
Fri 10:21:23 PM 36.0420 -114.9710 North 198 228 6,000 -1,500 Descending FlightAware ADS-B
Fri 10:21:48 PM 36.0650 -114.9790 344° North 199 229 5,100 -2,100 Descending FlightAware ADS-B
Fri 10:22:03 PM 36.0730 -114.9920 307° West 190 219 4,600 -2,000 Descending FlightAware ADS-B
Fri 10:22:18 PM 36.0730 -115.0080 270° West 184 212 4,100 -1,600 Descending FlightAware ADS-B
Fri 10:22:33 PM 36.0710 -115.0230 261° West 177 204 3,800 -900 Descending FlightAware ADS-B
Fri 10:22:58 PM 36.0740 -115.0470 279° West 158 182 3,500 -764 Descending FlightAware ADS-B
Fri 10:23:28 PM 36.0740 -115.0730 270° West 156 180 3,100 -900 Descending FlightAware ADS-B
Fri 10:23:58 PM 36.0740 -115.1000 270° West 152 175 2,600 -873 Descending FlightAware ADS-B
Fri 10:24:23 PM 36.0740 -115.1210 270° West 148 170 2,300 -667 Descending FlightAware ADS-B
Fri 10:24:43 PM 36.0740 -115.1370 270° West 145 167 2,100 -600 Descending FlightAware ADS-B

Login

Don't have an account? Register now (free) for customized features, flight alerts, and more!